createdAt,value
2022-12-08T00:00:42.699Z,977.62
2022-12-08T00:01:42.753Z,977.60
2022-12-08T00:02:42.818Z,977.60
2022-12-08T00:03:42.755Z,977.59
2022-12-08T00:04:42.669Z,977.59
2022-12-08T00:05:42.689Z,977.59
2022-12-08T00:06:42.639Z,977.59
2022-12-08T00:07:42.728Z,977.59
2022-12-08T00:08:42.611Z,977.60
2022-12-08T00:09:42.635Z,977.61
2022-12-08T00:10:50.222Z,977.59
2022-12-08T00:11:42.616Z,977.59
2022-12-08T00:12:42.596Z,977.56
2022-12-08T00:13:42.577Z,977.56
2022-12-08T00:14:42.578Z,977.55
2022-12-08T00:15:42.568Z,977.53
2022-12-08T00:16:42.553Z,977.51
2022-12-08T00:17:42.538Z,977.50
2022-12-08T00:18:42.508Z,977.49
2022-12-08T00:19:42.516Z,977.48
2022-12-08T00:20:42.508Z,977.47
2022-12-08T00:21:42.506Z,977.47
2022-12-08T00:22:42.474Z,977.47
2022-12-08T00:23:42.510Z,977.47
2022-12-08T00:24:42.449Z,977.47
2022-12-08T00:25:42.781Z,977.46
2022-12-08T00:26:42.445Z,977.45
2022-12-08T00:27:42.464Z,977.46
2022-12-08T00:28:42.435Z,977.45
2022-12-08T00:29:42.423Z,977.45
2022-12-08T00:30:42.390Z,977.44
2022-12-08T00:31:42.488Z,977.45
2022-12-08T00:32:42.373Z,977.44
2022-12-08T00:33:42.397Z,977.44
2022-12-08T00:34:42.355Z,977.43
2022-12-08T00:35:43.370Z,977.44
2022-12-08T00:36:42.331Z,977.43
2022-12-08T00:37:42.351Z,977.43
2022-12-08T00:38:42.305Z,977.43
2022-12-08T00:39:42.318Z,977.44
2022-12-08T00:40:42.284Z,977.43
2022-12-08T00:41:42.332Z,977.41
2022-12-08T00:42:42.262Z,977.41
2022-12-08T00:43:42.281Z,977.39
2022-12-08T00:44:42.241Z,977.38
2022-12-08T00:45:42.314Z,977.37
2022-12-08T00:46:42.225Z,977.37
2022-12-08T00:47:42.244Z,977.35
2022-12-08T00:48:42.268Z,977.33
2022-12-08T00:49:42.204Z,977.34
2022-12-08T00:50:42.176Z,977.34
2022-12-08T00:51:42.210Z,977.37
2022-12-08T00:52:42.167Z,977.38
2022-12-08T00:53:42.182Z,977.38
2022-12-08T00:54:42.171Z,977.38
2022-12-08T00:55:42.165Z,977.38
2022-12-08T00:56:42.119Z,977.39
2022-12-08T00:57:42.135Z,977.40
2022-12-08T00:58:42.103Z,977.42
2022-12-08T00:59:42.117Z,977.39
2022-12-08T01:00:42.177Z,977.38
2022-12-08T01:01:42.158Z,977.37
2022-12-08T01:02:42.058Z,977.37
2022-12-08T01:03:42.160Z,977.38
2022-12-08T01:04:42.056Z,977.38
2022-12-08T01:05:42.054Z,977.38
2022-12-08T01:06:42.012Z,977.38
2022-12-08T01:07:42.096Z,977.39
2022-12-08T01:08:42.005Z,977.39
2022-12-08T01:09:42.003Z,977.39
2022-12-08T01:10:41.987Z,977.39
2022-12-08T01:11:41.992Z,977.38
2022-12-08T01:12:41.992Z,977.37
2022-12-08T01:13:41.973Z,977.36
2022-12-08T01:14:41.954Z,977.35
2022-12-08T01:15:41.964Z,977.35
2022-12-08T01:16:42.032Z,977.39
2022-12-08T01:17:41.916Z,977.37
2022-12-08T01:18:41.906Z,977.38
2022-12-08T01:19:41.914Z,977.37
2022-12-08T01:20:41.877Z,977.37
2022-12-08T01:21:41.896Z,977.37
2022-12-08T01:22:41.882Z,977.37
2022-12-08T01:23:41.862Z,977.37
2022-12-08T01:24:41.843Z,977.37
2022-12-08T01:25:41.861Z,977.38
2022-12-08T01:26:41.844Z,977.39
2022-12-08T01:27:41.810Z,977.38
2022-12-08T01:28:41.785Z,977.38
2022-12-08T01:29:41.808Z,977.37
2022-12-08T01:30:41.849Z,977.35
2022-12-08T01:31:41.780Z,977.35
2022-12-08T01:32:41.749Z,977.35
2022-12-08T01:33:41.785Z,977.35
2022-12-08T01:34:41.732Z,977.36
2022-12-08T01:35:41.726Z,977.37
2022-12-08T01:36:41.707Z,977.37
2022-12-08T01:37:41.723Z,977.37
2022-12-08T01:38:41.691Z,977.37
2022-12-08T01:39:41.728Z,977.35
2022-12-08T01:40:41.662Z,977.35
2022-12-08T01:41:41.694Z,977.36
2022-12-08T01:42:41.639Z,977.36
2022-12-08T01:43:41.669Z,977.37
2022-12-08T01:44:41.679Z,977.36
2022-12-08T01:45:43.106Z,977.35
2022-12-08T01:46:41.764Z,977.35
2022-12-08T01:47:41.665Z,977.36
2022-12-08T01:48:41.604Z,977.35
2022-12-08T01:49:41.582Z,977.35
2022-12-08T01:50:41.610Z,977.34
2022-12-08T01:51:41.545Z,977.33
2022-12-08T01:52:41.547Z,977.33
2022-12-08T01:53:41.531Z,977.33
2022-12-08T01:54:41.555Z,977.32
2022-12-08T01:55:41.503Z,977.30
2022-12-08T01:56:41.524Z,977.30
2022-12-08T01:57:41.490Z,977.30
2022-12-08T01:58:41.502Z,977.29
2022-12-08T01:59:41.482Z,977.27
2022-12-08T02:00:41.490Z,977.26
2022-12-08T02:01:41.484Z,977.25
2022-12-08T02:02:41.533Z,977.24
2022-12-08T02:03:41.416Z,977.22
2022-12-08T02:04:41.432Z,977.21
2022-12-08T02:05:41.401Z,977.19
2022-12-08T02:07:52.307Z,977.16
2022-12-08T02:08:53.221Z,977.13
2022-12-08T02:09:53.241Z,977.11
2022-12-08T02:12:20.531Z,977.10
2022-12-08T02:12:25.550Z,977.10
2022-12-08T02:13:25.570Z,977.10
2022-12-08T02:14:25.526Z,977.10
2022-12-08T02:15:25.556Z,977.10
2022-12-08T02:16:25.577Z,977.09
2022-12-08T02:17:25.510Z,977.09
2022-12-08T02:18:25.482Z,977.08
2022-12-08T02:19:32.761Z,977.06
2022-12-08T02:20:25.473Z,977.05
2022-12-08T02:21:25.466Z,977.03
2022-12-08T02:22:24.449Z,977.01
2022-12-08T02:23:25.448Z,976.98
2022-12-08T02:24:25.429Z,976.97
2022-12-08T02:25:25.487Z,976.95
2022-12-08T02:26:25.404Z,976.94
2022-12-08T02:27:25.434Z,976.92
2022-12-08T02:28:25.383Z,976.91
2022-12-08T02:29:25.405Z,976.91
2022-12-08T02:30:25.365Z,976.90
2022-12-08T02:31:25.412Z,976.89
2022-12-08T02:32:25.347Z,976.88
2022-12-08T02:33:25.348Z,976.87
2022-12-08T02:34:25.322Z,976.86
2022-12-08T02:35:25.356Z,976.86
2022-12-08T02:36:25.305Z,976.86
2022-12-08T02:37:25.315Z,976.86
2022-12-08T02:38:25.280Z,976.85
2022-12-08T02:39:25.301Z,976.84
2022-12-08T02:40:25.273Z,976.83
2022-12-08T02:41:25.284Z,976.81
2022-12-08T02:42:25.248Z,976.81
2022-12-08T02:43:25.264Z,976.81
2022-12-08T02:44:25.226Z,976.81
2022-12-08T02:45:25.249Z,976.80
2022-12-08T02:46:25.237Z,976.78
2022-12-08T02:47:25.224Z,976.77
2022-12-08T02:48:25.185Z,976.76
2022-12-08T02:49:25.187Z,976.75
2022-12-08T02:50:25.168Z,976.75
2022-12-08T02:51:25.191Z,976.75
2022-12-08T02:52:25.139Z,976.76
2022-12-08T02:53:25.308Z,976.75
2022-12-08T02:54:25.122Z,976.75
2022-12-08T02:55:25.144Z,976.73
2022-12-08T02:56:25.128Z,976.71
2022-12-08T02:57:25.116Z,976.69
2022-12-08T02:58:25.081Z,976.67
2022-12-08T02:59:25.095Z,976.66
2022-12-08T03:00:25.062Z,976.64
2022-12-08T03:01:25.108Z,976.63
2022-12-08T03:02:25.122Z,976.61
2022-12-08T03:03:25.054Z,976.60
2022-12-08T03:04:25.019Z,976.59
2022-12-08T03:05:25.026Z,976.59
2022-12-08T03:06:24.993Z,976.59
2022-12-08T03:07:25.025Z,976.59
2022-12-08T03:08:25.023Z,976.57
2022-12-08T03:09:24.980Z,976.53
2022-12-08T03:10:24.958Z,976.49
2022-12-08T03:11:24.973Z,976.48
2022-12-08T03:12:24.942Z,976.47
2022-12-08T03:13:24.946Z,976.46
2022-12-08T03:14:24.919Z,976.46
2022-12-08T03:15:24.927Z,976.47
2022-12-08T03:16:24.985Z,976.47
2022-12-08T03:17:24.916Z,976.50
2022-12-08T03:18:24.895Z,976.51
2022-12-08T03:19:24.891Z,976.51
2022-12-08T03:20:24.860Z,976.52
2022-12-08T03:21:24.861Z,976.52
2022-12-08T03:22:24.838Z,976.51
2022-12-08T03:23:24.867Z,976.50
2022-12-08T03:24:24.829Z,976.48
2022-12-08T03:25:24.820Z,976.47
2022-12-08T03:26:24.799Z,976.47
2022-12-08T03:27:24.803Z,976.45
2022-12-08T03:28:24.777Z,976.44
2022-12-08T03:29:24.803Z,976.44
2022-12-08T03:30:24.756Z,976.43
2022-12-08T03:31:24.848Z,976.41
2022-12-08T03:32:24.750Z,976.40
2022-12-08T03:33:24.743Z,976.39
2022-12-08T03:34:24.720Z,976.37
2022-12-08T03:35:24.742Z,976.36
2022-12-08T03:36:24.699Z,976.36
2022-12-08T03:37:24.713Z,976.36
2022-12-08T03:38:24.675Z,976.34
2022-12-08T03:39:24.681Z,976.33
2022-12-08T03:40:24.660Z,976.32
2022-12-08T03:41:24.676Z,976.32
2022-12-08T03:42:24.636Z,976.32
2022-12-08T03:43:24.657Z,976.33
2022-12-08T03:44:24.615Z,976.35
2022-12-08T03:45:24.623Z,976.36
2022-12-08T03:46:55.522Z,976.36
2022-12-08T03:47:56.529Z,976.35
2022-12-08T03:48:56.502Z,976.33
2022-12-08T03:49:56.519Z,976.32
2022-12-08T03:50:56.487Z,976.30
2022-12-08T03:51:56.501Z,976.29
2022-12-08T03:52:56.473Z,976.29
2022-12-08T03:53:56.506Z,976.29
2022-12-08T03:54:56.445Z,976.30
2022-12-08T03:55:56.479Z,976.30
2022-12-08T03:56:56.435Z,976.30
2022-12-08T03:57:56.447Z,976.30
2022-12-08T03:58:56.404Z,976.30
2022-12-08T03:59:56.404Z,976.27
2022-12-08T04:00:56.381Z,976.26
2022-12-08T04:03:07.287Z,976.21
2022-12-08T04:04:08.197Z,976.19
2022-12-08T04:05:08.200Z,976.18
2022-12-08T04:06:08.177Z,976.18
2022-12-08T04:07:08.183Z,976.18
2022-12-08T04:08:08.251Z,976.17
2022-12-08T04:09:08.180Z,976.17
2022-12-08T04:10:08.267Z,976.17
2022-12-08T04:11:08.157Z,976.17
2022-12-08T04:12:08.115Z,976.16
2022-12-08T04:13:08.130Z,976.16
2022-12-08T04:14:08.116Z,976.14
2022-12-08T04:15:08.115Z,976.12
2022-12-08T04:16:08.117Z,976.10
2022-12-08T04:17:08.084Z,976.10
2022-12-08T04:18:08.073Z,976.10
2022-12-08T04:19:08.086Z,976.09
2022-12-08T04:20:08.080Z,976.09
2022-12-08T04:21:08.081Z,976.08
2022-12-08T04:22:08.039Z,976.07
2022-12-08T04:23:08.063Z,976.08
2022-12-08T04:24:07.996Z,976.07
2022-12-08T04:25:08.023Z,976.06
2022-12-08T04:26:07.988Z,976.05
2022-12-08T04:27:07.994Z,976.06
2022-12-08T04:28:07.952Z,976.08
2022-12-08T04:29:07.979Z,976.09
2022-12-08T04:30:08.064Z,976.09
2022-12-08T04:31:07.983Z,976.10
2022-12-08T04:32:07.923Z,976.10
2022-12-08T04:33:07.930Z,976.10
2022-12-08T04:34:07.900Z,976.09
2022-12-08T04:35:07.913Z,976.08
2022-12-08T04:36:07.892Z,976.07
2022-12-08T04:37:07.879Z,976.06
2022-12-08T04:38:07.869Z,976.07
2022-12-08T04:39:07.876Z,976.05
2022-12-08T04:40:07.873Z,976.05
2022-12-08T04:41:07.849Z,976.04
2022-12-08T04:42:07.865Z,976.04
2022-12-08T04:43:07.819Z,976.02
2022-12-08T04:44:07.797Z,976.02
2022-12-08T04:45:07.814Z,976.01
2022-12-08T04:46:07.788Z,976.01
2022-12-08T04:47:07.833Z,976.01
2022-12-08T04:48:07.794Z,976.00
2022-12-08T04:49:07.755Z,976.00
2022-12-08T04:50:07.734Z,976.00
2022-12-08T04:51:07.749Z,976.01
2022-12-08T04:52:07.727Z,976.02
2022-12-08T04:53:07.736Z,976.02
2022-12-08T04:54:07.703Z,976.01
2022-12-08T04:55:07.706Z,976.00
2022-12-08T04:56:07.671Z,976.00
2022-12-08T04:57:07.683Z,975.99
2022-12-08T04:58:07.663Z,975.99
2022-12-08T04:59:07.661Z,975.97
2022-12-08T05:00:07.850Z,975.96
2022-12-08T05:01:07.959Z,975.95
2022-12-08T05:02:07.709Z,975.93
2022-12-08T05:03:07.635Z,975.92
2022-12-08T05:04:07.718Z,975.91
2022-12-08T05:05:07.588Z,975.92
2022-12-08T05:06:07.595Z,975.93
2022-12-08T05:07:07.567Z,975.94
2022-12-08T05:08:07.664Z,975.95
2022-12-08T05:09:07.597Z,975.96
2022-12-08T05:10:07.638Z,975.96
2022-12-08T05:11:07.552Z,975.96
2022-12-08T05:12:07.503Z,975.95
2022-12-08T05:13:07.516Z,975.94
2022-12-08T05:14:07.488Z,975.92
2022-12-08T05:15:07.506Z,975.91
2022-12-08T05:16:07.521Z,975.92
2022-12-08T05:17:09.741Z,975.92
2022-12-08T05:18:07.463Z,975.93
2022-12-08T05:19:07.438Z,975.93
2022-12-08T05:20:07.565Z,975.93
2022-12-08T05:21:07.462Z,975.92
2022-12-08T05:22:07.394Z,975.91
2022-12-08T05:23:07.419Z,975.89
2022-12-08T05:24:07.376Z,975.89
2022-12-08T05:25:07.394Z,975.89
2022-12-08T05:26:07.359Z,975.90
2022-12-08T05:27:07.371Z,975.90
2022-12-08T05:28:39.665Z,975.91
2022-12-08T05:29:07.340Z,975.92
2022-12-08T05:30:07.517Z,975.93
2022-12-08T05:31:07.376Z,975.93
2022-12-08T05:32:07.351Z,975.93
2022-12-08T05:33:07.330Z,975.93
2022-12-08T05:34:07.274Z,975.91
2022-12-08T05:35:07.283Z,975.91
2022-12-08T05:36:07.276Z,975.90
2022-12-08T05:37:07.280Z,975.89
2022-12-08T05:38:07.242Z,975.88
2022-12-08T05:39:07.275Z,975.88
2022-12-08T05:40:07.662Z,975.87
2022-12-08T05:41:07.209Z,975.88
2022-12-08T05:42:07.215Z,975.88
2022-12-08T05:43:07.212Z,975.87
2022-12-08T05:44:07.166Z,975.86
2022-12-08T05:45:07.184Z,975.86
2022-12-08T05:46:07.246Z,975.85
2022-12-08T05:47:07.176Z,975.84
2022-12-08T05:48:07.133Z,975.85
2022-12-08T05:49:07.128Z,975.84
2022-12-08T05:50:07.520Z,975.85
2022-12-08T05:51:07.121Z,975.86
2022-12-08T05:52:07.091Z,975.84
2022-12-08T05:53:07.090Z,975.82
2022-12-08T05:54:07.068Z,975.82
2022-12-08T05:55:07.125Z,975.82
2022-12-08T05:56:07.045Z,975.82
2022-12-08T05:57:07.054Z,975.83
2022-12-08T05:58:08.138Z,975.83
2022-12-08T05:59:07.023Z,975.84
2022-12-08T06:00:07.451Z,975.85
2022-12-08T06:01:07.033Z,975.84
2022-12-08T06:02:07.095Z,975.83
2022-12-08T06:03:07.070Z,975.80
2022-12-08T06:04:06.969Z,975.79
2022-12-08T06:05:06.973Z,975.79
2022-12-08T06:06:06.940Z,975.79
2022-12-08T06:07:08.046Z,975.79
2022-12-08T06:08:06.991Z,975.79
2022-12-08T06:09:06.947Z,975.80
2022-12-08T06:10:07.185Z,975.80
2022-12-08T06:11:06.914Z,975.80
2022-12-08T06:12:06.901Z,975.81
2022-12-08T06:13:06.891Z,975.82
2022-12-08T06:14:06.878Z,975.81
2022-12-08T06:15:06.873Z,975.79
2022-12-08T06:16:06.897Z,975.78
2022-12-08T06:17:06.915Z,975.78
2022-12-08T06:18:06.821Z,975.78
2022-12-08T06:19:06.816Z,975.78
2022-12-08T06:20:07.225Z,975.78
2022-12-08T06:21:06.806Z,975.78
2022-12-08T06:22:06.788Z,975.79
2022-12-08T06:23:06.798Z,975.80
2022-12-08T06:24:06.758Z,975.81
2022-12-08T06:25:09.961Z,975.83
2022-12-08T06:26:06.739Z,975.84
2022-12-08T06:27:06.777Z,975.85
2022-12-08T06:28:06.712Z,975.86
2022-12-08T06:29:06.671Z,975.87
2022-12-08T06:30:07.010Z,975.86
2022-12-08T06:31:06.676Z,975.85
2022-12-08T06:32:06.714Z,975.84
2022-12-08T06:33:06.687Z,975.84
2022-12-08T06:34:06.671Z,975.83
2022-12-08T06:35:06.668Z,975.84
2022-12-08T06:36:06.626Z,975.85
2022-12-08T06:37:06.592Z,975.85
2022-12-08T06:38:06.609Z,975.87
2022-12-08T06:39:06.639Z,975.88
2022-12-08T06:40:06.833Z,975.88
2022-12-08T06:41:06.541Z,975.86
2022-12-08T06:42:06.518Z,975.85
2022-12-08T06:43:06.557Z,975.84
2022-12-08T06:44:06.505Z,975.85
2022-12-08T06:45:06.507Z,975.85
2022-12-08T06:46:06.629Z,975.85
2022-12-08T06:47:06.479Z,975.84
2022-12-08T06:48:06.473Z,975.84
2022-12-08T06:49:06.461Z,975.84
2022-12-08T06:50:06.908Z,975.84
2022-12-08T06:51:06.457Z,975.86
2022-12-08T06:52:06.448Z,975.86
2022-12-08T06:53:06.412Z,975.86
2022-12-08T06:54:06.413Z,975.85
2022-12-08T06:55:06.381Z,975.85
2022-12-08T06:56:06.428Z,975.85
2022-12-08T06:57:06.381Z,975.86
2022-12-08T06:58:06.381Z,975.88
2022-12-08T06:59:06.361Z,975.89
2022-12-08T07:00:06.691Z,975.90
2022-12-08T07:01:06.411Z,975.90
2022-12-08T07:02:06.421Z,975.92
2022-12-08T07:03:06.321Z,975.92
2022-12-08T07:04:06.321Z,975.93
2022-12-08T07:05:06.302Z,975.93
2022-12-08T07:06:06.300Z,975.93
2022-12-08T07:07:06.278Z,975.93
2022-12-08T07:08:06.318Z,975.94
2022-12-08T07:09:06.260Z,975.94
2022-12-08T07:10:06.710Z,975.95
2022-12-08T07:11:06.232Z,975.97
2022-12-08T07:12:06.227Z,975.98
2022-12-08T07:13:06.257Z,975.98
2022-12-08T07:14:06.214Z,976.01
2022-12-08T07:15:06.205Z,976.02
2022-12-08T07:16:06.207Z,976.03
2022-12-08T07:17:06.303Z,976.02
2022-12-08T07:18:06.167Z,976.02
2022-12-08T07:19:06.186Z,976.01
2022-12-08T07:20:06.583Z,976.01
2022-12-08T07:21:06.123Z,976.01
2022-12-08T07:22:09.559Z,976.01
2022-12-08T07:23:06.105Z,976.00
2022-12-08T07:24:06.130Z,975.98
2022-12-08T07:25:06.111Z,975.98
2022-12-08T07:26:06.101Z,975.99
2022-12-08T07:27:06.073Z,975.97
2022-12-08T07:28:06.068Z,975.95
2022-12-08T07:29:06.087Z,975.98
2022-12-08T07:30:06.325Z,975.96
2022-12-08T07:31:06.068Z,975.96
2022-12-08T07:32:06.033Z,975.95
2022-12-08T07:33:06.032Z,975.95
2022-12-08T07:34:06.015Z,975.95
2022-12-08T07:35:06.005Z,975.96
2022-12-08T07:36:05.999Z,975.96
2022-12-08T07:37:05.960Z,975.99
2022-12-08T07:38:05.972Z,975.99
2022-12-08T07:39:05.964Z,976.01
2022-12-08T07:40:06.480Z,976.00
2022-12-08T07:41:05.931Z,976.02
2022-12-08T07:42:05.932Z,976.01
2022-12-08T07:43:06.083Z,976.01
2022-12-08T07:44:05.929Z,976.00
2022-12-08T07:45:05.890Z,976.00
2022-12-08T07:46:05.978Z,975.98
2022-12-08T07:47:05.864Z,975.97
2022-12-08T07:48:05.892Z,975.96
2022-12-08T07:49:05.861Z,975.97
2022-12-08T07:50:06.097Z,975.96
2022-12-08T07:51:05.846Z,975.96
2022-12-08T07:52:05.893Z,975.97
2022-12-08T07:53:05.834Z,975.97
2022-12-08T07:54:05.853Z,975.96
2022-12-08T07:55:05.820Z,975.94
2022-12-08T07:56:05.791Z,975.93
2022-12-08T07:57:05.765Z,975.92
2022-12-08T07:58:05.787Z,975.92
2022-12-08T07:59:05.752Z,975.91
2022-12-08T08:00:06.203Z,975.90
2022-12-08T08:01:05.915Z,975.90
2022-12-08T08:02:23.591Z,975.90
2022-12-08T08:03:05.778Z,975.89
2022-12-08T08:04:05.773Z,975.88
2022-12-08T08:05:05.786Z,975.88
2022-12-08T08:06:05.700Z,975.88
2022-12-08T08:07:05.660Z,975.88
2022-12-08T08:08:05.759Z,975.88
2022-12-08T08:09:05.683Z,975.90
2022-12-08T08:10:05.980Z,975.93
2022-12-08T08:11:15.756Z,975.94
2022-12-08T08:12:29.639Z,975.95
2022-12-08T08:13:05.601Z,975.97
2022-12-08T08:14:05.628Z,975.98
2022-12-08T08:15:05.589Z,975.99
2022-12-08T08:16:05.758Z,976.00
2022-12-08T08:17:05.661Z,976.00
2022-12-08T08:18:05.573Z,976.00
2022-12-08T08:19:05.535Z,976.00
2022-12-08T08:20:05.984Z,975.99
2022-12-08T08:21:22.136Z,975.97
2022-12-08T08:22:05.551Z,975.96
2022-12-08T08:23:05.509Z,975.97
2022-12-08T08:24:05.511Z,975.96
2022-12-08T08:25:05.475Z,975.97
2022-12-08T08:26:05.521Z,975.97
2022-12-08T08:27:05.486Z,975.96
2022-12-08T08:28:05.465Z,975.95
2022-12-08T08:29:05.459Z,975.94
2022-12-08T08:30:06.036Z,975.95
2022-12-08T08:31:05.497Z,975.95
2022-12-08T08:32:05.445Z,975.97
2022-12-08T08:33:05.438Z,975.97
2022-12-08T08:34:05.403Z,975.99
2022-12-08T08:35:05.414Z,975.99
2022-12-08T08:36:05.398Z,975.98
2022-12-08T08:37:05.428Z,975.99
2022-12-08T08:38:05.380Z,975.98
2022-12-08T08:39:05.340Z,975.99
2022-12-08T08:40:05.726Z,975.99
2022-12-08T08:41:05.327Z,975.98
2022-12-08T08:42:05.319Z,975.99
2022-12-08T08:43:05.281Z,975.98
2022-12-08T08:44:05.305Z,975.99
2022-12-08T08:45:05.267Z,976.00
2022-12-08T08:46:05.363Z,975.98
2022-12-08T08:47:05.285Z,976.01
2022-12-08T08:48:05.254Z,975.98
2022-12-08T08:49:05.231Z,975.99
2022-12-08T08:50:05.550Z,975.98
2022-12-08T08:51:05.224Z,975.97
2022-12-08T08:52:05.199Z,975.96
2022-12-08T08:53:05.212Z,975.96
2022-12-08T08:54:05.191Z,975.96
2022-12-08T08:55:05.179Z,975.95
2022-12-08T08:56:05.179Z,975.96
2022-12-08T08:57:05.140Z,975.94
2022-12-08T08:58:05.226Z,975.95
2022-12-08T08:59:05.114Z,975.94
2022-12-08T09:00:05.486Z,975.93
2022-12-08T09:01:05.103Z,975.91
2022-12-08T09:02:05.174Z,975.93
2022-12-08T09:03:05.075Z,975.92
2022-12-08T09:04:05.168Z,975.93
2022-12-08T09:05:05.133Z,975.92
2022-12-08T09:06:05.147Z,975.91
2022-12-08T09:07:05.045Z,975.89
2022-12-08T09:08:05.119Z,975.88
2022-12-08T09:09:05.019Z,975.88
2022-12-08T09:10:05.422Z,975.88
2022-12-08T09:11:04.999Z,975.89
2022-12-08T09:12:05.048Z,975.91
2022-12-08T09:13:04.996Z,975.90
2022-12-08T09:14:04.987Z,975.91
2022-12-08T09:15:04.967Z,975.91
2022-12-08T09:16:05.037Z,975.91
2022-12-08T09:17:04.921Z,975.90
2022-12-08T09:18:04.980Z,975.91
2022-12-08T09:19:04.900Z,975.91
2022-12-08T09:20:05.257Z,975.91
2022-12-08T09:21:04.879Z,975.90
2022-12-08T09:22:04.918Z,975.90
2022-12-08T09:23:04.869Z,975.88
2022-12-08T09:24:04.866Z,975.88
2022-12-08T09:25:04.835Z,975.88
2022-12-08T09:26:04.867Z,975.87
2022-12-08T09:27:04.841Z,975.86
2022-12-08T09:28:04.831Z,975.86
2022-12-08T09:29:04.800Z,975.85
2022-12-08T09:30:05.204Z,975.86
2022-12-08T09:31:04.915Z,975.85
2022-12-08T09:32:04.838Z,975.83
2022-12-08T09:33:04.840Z,975.82
2022-12-08T09:34:04.754Z,975.81
2022-12-08T09:35:04.742Z,975.81
2022-12-08T09:36:04.776Z,975.79
2022-12-08T09:37:04.739Z,975.79
2022-12-08T09:38:04.742Z,975.79
2022-12-08T09:39:04.740Z,975.78
2022-12-08T09:40:05.139Z,975.81
2022-12-08T09:41:04.671Z,975.79
2022-12-08T09:42:04.673Z,975.81
2022-12-08T09:43:04.641Z,975.79
2022-12-08T09:44:04.650Z,975.80
2022-12-08T09:45:04.673Z,975.78
2022-12-08T09:46:04.713Z,975.79
2022-12-08T09:47:04.720Z,975.77
2022-12-08T09:48:04.616Z,975.76
2022-12-08T09:49:04.610Z,975.77
2022-12-08T09:50:05.202Z,975.78
2022-12-08T09:51:04.558Z,975.77
2022-12-08T09:52:04.597Z,975.77
2022-12-08T09:53:04.559Z,975.76
2022-12-08T09:54:04.572Z,975.75
2022-12-08T09:55:04.570Z,975.73
2022-12-08T09:56:04.647Z,975.70
2022-12-08T09:57:04.500Z,975.68
2022-12-08T09:58:04.545Z,975.67
2022-12-08T09:59:04.497Z,975.65
2022-12-08T10:00:04.907Z,975.66
2022-12-08T10:01:04.480Z,975.64
2022-12-08T10:02:04.532Z,975.62
2022-12-08T10:03:04.452Z,975.59
2022-12-08T10:04:04.440Z,975.57
2022-12-08T10:05:04.485Z,975.56
2022-12-08T10:06:04.461Z,975.56
2022-12-08T10:07:04.426Z,975.56
2022-12-08T10:08:04.511Z,975.56
2022-12-08T10:09:04.375Z,975.54
2022-12-08T10:10:04.693Z,975.52
2022-12-08T10:11:04.350Z,975.52
2022-12-08T10:12:04.382Z,975.50
2022-12-08T10:13:04.340Z,975.50
2022-12-08T10:14:04.354Z,975.49
2022-12-08T10:15:04.339Z,975.49
2022-12-08T10:16:04.403Z,975.49
2022-12-08T10:17:04.341Z,975.48
2022-12-08T10:18:04.335Z,975.48
2022-12-08T10:19:04.277Z,975.46
2022-12-08T10:20:04.507Z,975.45
2022-12-08T10:21:04.283Z,975.43
2022-12-08T10:22:04.267Z,975.42
2022-12-08T10:23:04.239Z,975.40
2022-12-08T10:24:04.257Z,975.39
2022-12-08T10:25:04.208Z,975.38
2022-12-08T10:26:04.248Z,975.38
2022-12-08T10:27:04.213Z,975.37
2022-12-08T10:28:04.248Z,975.36
2022-12-08T10:29:04.178Z,975.35
2022-12-08T10:30:04.404Z,975.33
2022-12-08T10:31:04.204Z,975.31
2022-12-08T10:32:04.232Z,975.30
2022-12-08T10:33:04.130Z,975.27
2022-12-08T10:34:04.173Z,975.26
2022-12-08T10:35:04.104Z,975.26
2022-12-08T10:36:04.143Z,975.24
2022-12-08T10:37:04.083Z,975.22
2022-12-08T10:38:04.120Z,975.20
2022-12-08T10:39:04.064Z,975.18
2022-12-08T10:40:04.521Z,975.17
2022-12-08T10:41:04.141Z,975.15
2022-12-08T10:42:04.095Z,975.13
2022-12-08T10:43:04.022Z,975.11
2022-12-08T10:44:04.057Z,975.11
2022-12-08T10:45:04.036Z,975.09
2022-12-08T10:46:04.019Z,975.09
2022-12-08T10:47:04.082Z,975.07
2022-12-08T10:48:04.004Z,975.07
2022-12-08T10:49:03.988Z,975.07
2022-12-08T10:50:04.294Z,975.04
2022-12-08T10:51:03.972Z,975.03
2022-12-08T10:52:03.974Z,975.02
2022-12-08T10:53:03.947Z,974.98
2022-12-08T10:54:03.965Z,974.97
2022-12-08T10:55:03.894Z,974.95
2022-12-08T10:56:03.946Z,974.95
2022-12-08T10:57:03.931Z,974.93
2022-12-08T10:58:03.883Z,974.93
2022-12-08T10:59:03.853Z,974.92
2022-12-08T11:00:06.142Z,974.92
2022-12-08T11:01:03.958Z,974.92
2022-12-08T11:02:04.150Z,974.92
2022-12-08T11:03:03.976Z,974.91
2022-12-08T11:04:03.825Z,974.91
2022-12-08T11:05:03.823Z,974.91
2022-12-08T11:06:10.501Z,974.90
2022-12-08T11:07:03.829Z,974.89
2022-12-08T11:08:03.851Z,974.88
2022-12-08T11:09:03.833Z,974.87
2022-12-08T11:10:04.093Z,974.87
2022-12-08T11:11:03.762Z,974.86
2022-12-08T11:12:03.726Z,974.85
2022-12-08T11:13:03.770Z,974.82
2022-12-08T11:14:03.722Z,974.80
2022-12-08T11:15:03.720Z,974.79
2022-12-08T11:16:03.744Z,974.78
2022-12-08T11:17:03.733Z,974.76
2022-12-08T11:18:03.685Z,974.74
2022-12-08T11:19:03.679Z,974.72
2022-12-08T11:20:04.179Z,974.70
2022-12-08T11:21:03.640Z,974.70
2022-12-08T11:22:03.630Z,974.70
2022-12-08T11:23:03.675Z,974.69
2022-12-08T11:24:03.598Z,974.69
2022-12-08T11:25:03.619Z,974.67
2022-12-08T11:26:03.581Z,974.66
2022-12-08T11:27:03.596Z,974.67
2022-12-08T11:28:03.572Z,974.65
2022-12-08T11:29:03.584Z,974.64
2022-12-08T11:30:05.955Z,974.64
2022-12-08T11:31:03.565Z,974.65
2022-12-08T11:32:03.620Z,974.61
2022-12-08T11:33:03.520Z,974.59
2022-12-08T11:34:03.503Z,974.59
2022-12-08T11:35:03.501Z,974.57
2022-12-08T11:36:03.472Z,974.56
2022-12-08T11:37:03.518Z,974.56
2022-12-08T11:38:20.594Z,974.56
2022-12-08T11:39:03.510Z,974.57
2022-12-08T11:40:03.752Z,974.54
2022-12-08T11:41:03.469Z,974.56
2022-12-08T11:42:03.406Z,974.55
2022-12-08T11:43:03.450Z,974.54
2022-12-08T11:44:03.388Z,974.56
2022-12-08T11:45:03.785Z,974.53
2022-12-08T11:46:03.464Z,974.53
2022-12-08T11:47:03.384Z,974.53
2022-12-08T11:48:03.346Z,974.53
2022-12-08T11:49:06.774Z,974.54
2022-12-08T11:50:03.885Z,974.54
2022-12-08T11:51:03.373Z,974.55
2022-12-08T11:52:03.359Z,974.56
2022-12-08T11:53:03.324Z,974.56
2022-12-08T11:54:03.312Z,974.56
2022-12-08T11:55:03.288Z,974.56
2022-12-08T11:56:03.259Z,974.57
2022-12-08T11:57:03.288Z,974.54
2022-12-08T11:58:03.346Z,974.53
2022-12-08T11:59:03.277Z,974.55
2022-12-08T12:00:03.675Z,974.55
2022-12-08T12:01:03.228Z,974.57
2022-12-08T12:02:03.316Z,974.55
2022-12-08T12:03:03.241Z,974.56
2022-12-08T12:04:03.189Z,974.53
2022-12-08T12:05:03.224Z,974.51
2022-12-08T12:06:18.313Z,974.52
2022-12-08T12:07:03.187Z,974.50
2022-12-08T12:08:03.217Z,974.50
2022-12-08T12:09:03.155Z,974.48
2022-12-08T12:10:03.549Z,974.46
2022-12-08T12:11:03.140Z,974.45
2022-12-08T12:12:03.097Z,974.47
2022-12-08T12:13:03.159Z,974.43
2022-12-08T12:14:03.087Z,974.41
2022-12-08T12:15:03.118Z,974.40
2022-12-08T12:16:03.051Z,974.41
2022-12-08T12:17:03.137Z,974.39
2022-12-08T12:18:03.057Z,974.39
2022-12-08T12:19:03.104Z,974.39
2022-12-08T12:20:03.508Z,974.38
2022-12-08T12:21:03.028Z,974.38
2022-12-08T12:22:03.050Z,974.38
2022-12-08T12:23:03.035Z,974.36
2022-12-08T12:24:03.013Z,974.36
2022-12-08T12:25:03.006Z,974.35
2022-12-08T12:26:02.987Z,974.33
2022-12-08T12:27:02.955Z,974.32
2022-12-08T12:28:02.961Z,974.31
2022-12-08T12:29:02.975Z,974.31
2022-12-08T12:30:02.930Z,974.30
2022-12-08T12:31:02.965Z,974.29
2022-12-08T12:32:02.896Z,974.29